sensor_id;sensor_type;location;lat;lon;timestamp;temperature;humidity
71047;SHT31;58703;48.978;8.982;2024-03-08T00:02:23;2.77;91.11
71047;SHT31;58703;48.978;8.982;2024-03-08T00:04:49;2.69;91.25
71047;SHT31;58703;48.978;8.982;2024-03-08T00:07:14;2.66;91.32
71047;SHT31;58703;48.978;8.982;2024-03-08T00:09:40;2.67;91.17
71047;SHT31;58703;48.978;8.982;2024-03-08T00:12:06;2.73;90.98
71047;SHT31;58703;48.978;8.982;2024-03-08T00:14:31;2.69;90.97
71047;SHT31;58703;48.978;8.982;2024-03-08T00:16:57;2.63;91.01
71047;SHT31;58703;48.978;8.982;2024-03-08T00:19:23;2.59;91.18
71047;SHT31;58703;48.978;8.982;2024-03-08T00:21:48;2.50;91.49
71047;SHT31;58703;48.978;8.982;2024-03-08T00:24:14;2.49;91.46
71047;SHT31;58703;48.978;8.982;2024-03-08T00:26:39;2.46;91.55
71047;SHT31;58703;48.978;8.982;2024-03-08T00:29:05;2.45;91.70
71047;SHT31;58703;48.978;8.982;2024-03-08T00:31:31;2.50;91.65
71047;SHT31;58703;48.978;8.982;2024-03-08T00:33:57;2.53;91.46
71047;SHT31;58703;48.978;8.982;2024-03-08T00:36:23;2.50;91.31
71047;SHT31;58703;48.978;8.982;2024-03-08T00:38:48;2.50;91.34
71047;SHT31;58703;48.978;8.982;2024-03-08T00:41:14;2.36;91.67
71047;SHT31;58703;48.978;8.982;2024-03-08T00:43:39;2.33;91.88
71047;SHT31;58703;48.978;8.982;2024-03-08T00:46:05;2.32;91.98
71047;SHT31;58703;48.978;8.982;2024-03-08T00:48:31;2.24;92.00
71047;SHT31;58703;48.978;8.982;2024-03-08T00:50:56;2.19;92.17
71047;SHT31;58703;48.978;8.982;2024-03-08T00:53:22;2.15;92.38
71047;SHT31;58703;48.978;8.982;2024-03-08T00:55:48;2.02;92.58
71047;SHT31;58703;48.978;8.982;2024-03-08T00:58:14;1.99;92.70
71047;SHT31;58703;48.978;8.982;2024-03-08T01:00:40;2.07;92.67
71047;SHT31;58703;48.978;8.982;2024-03-08T01:03:05;1.95;92.67
71047;SHT31;58703;48.978;8.982;2024-03-08T01:05:32;1.82;93.04
71047;SHT31;58703;48.978;8.982;2024-03-08T01:07:58;1.88;93.35
71047;SHT31;58703;48.978;8.982;2024-03-08T01:10:23;1.77;93.47
71047;SHT31;58703;48.978;8.982;2024-03-08T01:12:49;1.70;93.71
71047;SHT31;58703;48.978;8.982;2024-03-08T01:15:15;1.70;93.99
71047;SHT31;58703;48.978;8.982;2024-03-08T01:17:41;1.61;93.88
71047;SHT31;58703;48.978;8.982;2024-03-08T01:20:07;1.58;93.98
71047;SHT31;58703;48.978;8.982;2024-03-08T01:22:33;1.57;94.08
71047;SHT31;58703;48.978;8.982;2024-03-08T01:24:59;1.60;94.13
71047;SHT31;58703;48.978;8.982;2024-03-08T01:27:24;1.53;94.09
71047;SHT31;58703;48.978;8.982;2024-03-08T01:29:50;1.50;94.37
71047;SHT31;58703;48.978;8.982;2024-03-08T01:32:16;1.43;94.41
71047;SHT31;58703;48.978;8.982;2024-03-08T01:34:41;1.39;94.47
71047;SHT31;58703;48.978;8.982;2024-03-08T01:37:07;1.39;94.65
71047;SHT31;58703;48.978;8.982;2024-03-08T01:39:33;1.39;94.43
71047;SHT31;58703;48.978;8.982;2024-03-08T01:41:59;1.34;94.39
71047;SHT31;58703;48.978;8.982;2024-03-08T01:44:26;1.36;94.39
71047;SHT31;58703;48.978;8.982;2024-03-08T01:46:52;1.34;94.20
71047;SHT31;58703;48.978;8.982;2024-03-08T01:49:20;1.34;94.39
71047;SHT31;58703;48.978;8.982;2024-03-08T01:51:48;1.23;94.32
71047;SHT31;58703;48.978;8.982;2024-03-08T01:54:15;1.17;94.62
71047;SHT31;58703;48.978;8.982;2024-03-08T01:56:42;1.23;94.81
71047;SHT31;58703;48.978;8.982;2024-03-08T01:59:08;1.27;94.65
71047;SHT31;58703;48.978;8.982;2024-03-08T02:01:34;1.23;94.30
71047;SHT31;58703;48.978;8.982;2024-03-08T02:04:00;1.06;94.50
71047;SHT31;58703;48.978;8.982;2024-03-08T02:06:25;1.09;94.86
71047;SHT31;58703;48.978;8.982;2024-03-08T02:08:51;1.10;94.75
71047;SHT31;58703;48.978;8.982;2024-03-08T02:11:17;1.12;94.47
71047;SHT31;58703;48.978;8.982;2024-03-08T02:13:44;1.16;94.46
71047;SHT31;58703;48.978;8.982;2024-03-08T02:16:09;1.03;94.57
71047;SHT31;58703;48.978;8.982;2024-03-08T02:18:35;1.04;94.99
71047;SHT31;58703;48.978;8.982;2024-03-08T02:21:02;1.03;94.79
71047;SHT31;58703;48.978;8.982;2024-03-08T02:23:28;1.02;94.72
71047;SHT31;58703;48.978;8.982;2024-03-08T02:25:55;1.03;94.80
71047;SHT31;58703;48.978;8.982;2024-03-08T02:28:22;0.97;94.79
71047;SHT31;58703;48.978;8.982;2024-03-08T02:30:48;1.02;94.81
71047;SHT31;58703;48.978;8.982;2024-03-08T02:33:15;1.00;94.76
71047;SHT31;58703;48.978;8.982;2024-03-08T02:35:45;0.96;94.87
71047;SHT31;58703;48.978;8.982;2024-03-08T02:38:17;1.00;94.60
71047;SHT31;58703;48.978;8.982;2024-03-08T02:40:45;1.03;94.59
71047;SHT31;58703;48.978;8.982;2024-03-08T02:43:12;0.97;94.61
71047;SHT31;58703;48.978;8.982;2024-03-08T02:45:38;0.92;94.74
71047;SHT31;58703;48.978;8.982;2024-03-08T02:48:04;0.88;94.68
71047;SHT31;58703;48.978;8.982;2024-03-08T02:50:32;0.89;94.59
71047;SHT31;58703;48.978;8.982;2024-03-08T02:53:00;0.86;94.65
71047;SHT31;58703;48.978;8.982;2024-03-08T02:55:26;0.79;94.85
71047;SHT31;58703;48.978;8.982;2024-03-08T02:57:52;0.76;94.75
71047;SHT31;58703;48.978;8.982;2024-03-08T03:00:18;0.71;94.93
71047;SHT31;58703;48.978;8.982;2024-03-08T03:02:45;0.69;95.11
71047;SHT31;58703;48.978;8.982;2024-03-08T03:05:11;0.64;95.19
71047;SHT31;58703;48.978;8.982;2024-03-08T03:07:37;0.65;95.30
71047;SHT31;58703;48.978;8.982;2024-03-08T03:10:03;0.65;95.26
71047;SHT31;58703;48.978;8.982;2024-03-08T03:12:31;0.64;95.18
71047;SHT31;58703;48.978;8.982;2024-03-08T03:14:57;0.57;95.14
71047;SHT31;58703;48.978;8.982;2024-03-08T03:17:26;0.54;95.34
71047;SHT31;58703;48.978;8.982;2024-03-08T03:19:52;0.55;95.38
71047;SHT31;58703;48.978;8.982;2024-03-08T03:22:19;0.52;95.34
71047;SHT31;58703;48.978;8.982;2024-03-08T03:24:45;0.57;95.17
71047;SHT31;58703;48.978;8.982;2024-03-08T03:27:12;0.52;94.96
71047;SHT31;58703;48.978;8.982;2024-03-08T03:29:39;0.52;95.01
71047;SHT31;58703;48.978;8.982;2024-03-08T03:32:05;0.57;94.99
71047;SHT31;58703;48.978;8.982;2024-03-08T03:34:33;0.72;94.83
71047;SHT31;58703;48.978;8.982;2024-03-08T03:37:02;0.79;94.40
71047;SHT31;58703;48.978;8.982;2024-03-08T03:39:28;0.71;94.29
71047;SHT31;58703;48.978;8.982;2024-03-08T03:41:58;0.62;94.28
71047;SHT31;58703;48.978;8.982;2024-03-08T03:44:24;0.66;94.55
71047;SHT31;58703;48.978;8.982;2024-03-08T03:46:50;0.64;94.45
71047;SHT31;58703;48.978;8.982;2024-03-08T03:49:18;0.57;94.63
71047;SHT31;58703;48.978;8.982;2024-03-08T03:51:44;0.64;94.89
71047;SHT31;58703;48.978;8.982;2024-03-08T03:54:10;0.64;94.60
71047;SHT31;58703;48.978;8.982;2024-03-08T03:56:36;0.72;94.73
71047;SHT31;58703;48.978;8.982;2024-03-08T03:59:01;0.66;94.55
71047;SHT31;58703;48.978;8.982;2024-03-08T04:01:27;0.64;94.56
71047;SHT31;58703;48.978;8.982;2024-03-08T04:03:52;0.64;94.35
71047;SHT31;58703;48.978;8.982;2024-03-08T04:06:18;0.58;94.65
71047;SHT31;58703;48.978;8.982;2024-03-08T04:08:43;0.58;94.54
71047;SHT31;58703;48.978;8.982;2024-03-08T04:11:09;0.57;94.63
71047;SHT31;58703;48.978;8.982;2024-03-08T04:13:34;0.54;94.66
71047;SHT31;58703;48.978;8.982;2024-03-08T04:16:02;0.50;94.79
71047;SHT31;58703;48.978;8.982;2024-03-08T04:18:27;0.58;95.01
71047;SHT31;58703;48.978;8.982;2024-03-08T04:20:53;0.57;94.73
71047;SHT31;58703;48.978;8.982;2024-03-08T04:23:19;0.58;94.51
71047;SHT31;58703;48.978;8.982;2024-03-08T04:25:45;0.57;94.61
71047;SHT31;58703;48.978;8.982;2024-03-08T04:28:10;0.66;94.42
71047;SHT31;58703;48.978;8.982;2024-03-08T04:30:40;0.68;94.38
71047;SHT31;58703;48.978;8.982;2024-03-08T04:33:05;0.72;94.21
71047;SHT31;58703;48.978;8.982;2024-03-08T04:35:35;0.72;94.06
71047;SHT31;58703;48.978;8.982;2024-03-08T04:38:00;0.61;94.33
71047;SHT31;58703;48.978;8.982;2024-03-08T04:40:26;0.60;94.42
71047;SHT31;58703;48.978;8.982;2024-03-08T04:42:51;0.64;94.39
71047;SHT31;58703;48.978;8.982;2024-03-08T04:45:17;0.69;94.27
71047;SHT31;58703;48.978;8.982;2024-03-08T04:47:43;0.66;94.18
71047;SHT31;58703;48.978;8.982;2024-03-08T04:50:09;0.68;94.29
71047;SHT31;58703;48.978;8.982;2024-03-08T04:52:35;0.62;94.15
71047;SHT31;58703;48.978;8.982;2024-03-08T04:55:01;0.52;94.46
71047;SHT31;58703;48.978;8.982;2024-03-08T04:57:29;0.48;94.70
71047;SHT31;58703;48.978;8.982;2024-03-08T04:59:55;0.51;94.82
71047;SHT31;58703;48.978;8.982;2024-03-08T05:02:21;0.55;94.50
71047;SHT31;58703;48.978;8.982;2024-03-08T05:04:48;0.57;94.52
71047;SHT31;58703;48.978;8.982;2024-03-08T05:07:13;0.65;94.44
71047;SHT31;58703;48.978;8.982;2024-03-08T05:09:39;0.58;94.33
71047;SHT31;58703;48.978;8.982;2024-03-08T05:12:06;0.65;94.30
71047;SHT31;58703;48.978;8.982;2024-03-08T05:14:33;0.64;94.23
71047;SHT31;58703;48.978;8.982;2024-03-08T05:17:00;0.57;94.43
71047;SHT31;58703;48.978;8.982;2024-03-08T05:19:26;0.51;94.74
71047;SHT31;58703;48.978;8.982;2024-03-08T05:21:52;0.47;94.85
71047;SHT31;58703;48.978;8.982;2024-03-08T05:24:18;0.38;95.11
71047;SHT31;58703;48.978;8.982;2024-03-08T05:26:44;0.47;95.15
71047;SHT31;58703;48.978;8.982;2024-03-08T05:29:09;0.38;94.90
71047;SHT31;58703;48.978;8.982;2024-03-08T05:31:45;0.42;95.19
71047;SHT31;58703;48.978;8.982;2024-03-08T05:34:12;0.45;95.10
71047;SHT31;58703;48.978;8.982;2024-03-08T05:36:41;0.52;95.09
71047;SHT31;58703;48.978;8.982;2024-03-08T05:39:08;0.38;94.98
71047;SHT31;58703;48.978;8.982;2024-03-08T05:41:36;0.45;95.18
71047;SHT31;58703;48.978;8.982;2024-03-08T05:44:02;0.48;95.02
71047;SHT31;58703;48.978;8.982;2024-03-08T05:46:28;0.47;95.05
71047;SHT31;58703;48.978;8.982;2024-03-08T05:48:53;0.32;95.21
71047;SHT31;58703;48.978;8.982;2024-03-08T05:51:19;0.32;95.54
71047;SHT31;58703;48.978;8.982;2024-03-08T05:53:47;0.27;95.60
71047;SHT31;58703;48.978;8.982;2024-03-08T05:56:12;0.30;95.65
71047;SHT31;58703;48.978;8.982;2024-03-08T05:58:38;0.25;95.78
71047;SHT31;58703;48.978;8.982;2024-03-08T06:01:03;0.24;95.74
71047;SHT31;58703;48.978;8.982;2024-03-08T06:03:34;0.24;95.78
71047;SHT31;58703;48.978;8.982;2024-03-08T06:05:59;0.24;95.78
71047;SHT31;58703;48.978;8.982;2024-03-08T06:08:25;0.32;95.85
71047;SHT31;58703;48.978;8.982;2024-03-08T06:10:55;0.32;95.58
71047;SHT31;58703;48.978;8.982;2024-03-08T06:13:21;0.38;95.65
71047;SHT31;58703;48.978;8.982;2024-03-08T06:15:47;0.47;95.42
71047;SHT31;58703;48.978;8.982;2024-03-08T06:18:12;0.52;95.06
71047;SHT31;58703;48.978;8.982;2024-03-08T06:20:38;0.64;94.78
71047;SHT31;58703;48.978;8.982;2024-03-08T06:23:03;0.69;94.51
71047;SHT31;58703;48.978;8.982;2024-03-08T06:25:29;0.73;94.41
71047;SHT31;58703;48.978;8.982;2024-03-08T06:27:55;0.82;94.28
71047;SHT31;58703;48.978;8.982;2024-03-08T06:30:20;0.82;94.19
71047;SHT31;58703;48.978;8.982;2024-03-08T06:32:46;0.86;94.22
71047;SHT31;58703;48.978;8.982;2024-03-08T06:35:12;0.92;93.95
71047;SHT31;58703;48.978;8.982;2024-03-08T06:37:37;0.97;93.80
71047;SHT31;58703;48.978;8.982;2024-03-08T06:40:04;0.93;93.90
71047;SHT31;58703;48.978;8.982;2024-03-08T06:42:30;1.06;93.71
71047;SHT31;58703;48.978;8.982;2024-03-08T06:45:01;1.13;93.43
71047;SHT31;58703;48.978;8.982;2024-03-08T06:47:31;1.24;93.16
71047;SHT31;58703;48.978;8.982;2024-03-08T06:49:56;1.23;93.15
71047;SHT31;58703;48.978;8.982;2024-03-08T06:52:22;1.24;93.08
71047;SHT31;58703;48.978;8.982;2024-03-08T06:54:48;1.40;92.86
71047;SHT31;58703;48.978;8.982;2024-03-08T06:57:13;1.48;92.71
71047;SHT31;58703;48.978;8.982;2024-03-08T06:59:39;1.60;92.25
71047;SHT31;58703;48.978;8.982;2024-03-08T07:02:05;1.67;92.34
71047;SHT31;58703;48.978;8.982;2024-03-08T07:04:34;1.81;91.90
71047;SHT31;58703;48.978;8.982;2024-03-08T07:07:06;1.89;91.72
71047;SHT31;58703;48.978;8.982;2024-03-08T07:09:36;1.98;91.47
71047;SHT31;58703;48.978;8.982;2024-03-08T07:12:02;2.05;91.15
71047;SHT31;58703;48.978;8.982;2024-03-08T07:14:27;2.14;91.03
71047;SHT31;58703;48.978;8.982;2024-03-08T07:16:53;2.26;91.15
71047;SHT31;58703;48.978;8.982;2024-03-08T07:19:18;2.30;90.50
71047;SHT31;58703;48.978;8.982;2024-03-08T07:21:44;2.38;90.50
71047;SHT31;58703;48.978;8.982;2024-03-08T07:24:11;2.38;90.24
71047;SHT31;58703;48.978;8.982;2024-03-08T07:26:43;2.49;90.13
71047;SHT31;58703;48.978;8.982;2024-03-08T07:29:09;2.54;90.43
71047;SHT31;58703;48.978;8.982;2024-03-08T07:31:34;2.64;90.09
71047;SHT31;58703;48.978;8.982;2024-03-08T07:34:11;2.73;89.47
71047;SHT31;58703;48.978;8.982;2024-03-08T07:36:36;2.80;89.69
71047;SHT31;58703;48.978;8.982;2024-03-08T07:39:02;2.87;89.91
71047;SHT31;58703;48.978;8.982;2024-03-08T07:41:27;2.94;89.41
71047;SHT31;58703;48.978;8.982;2024-03-08T07:43:55;2.93;89.31
71047;SHT31;58703;48.978;8.982;2024-03-08T07:46:21;2.87;89.25
71047;SHT31;58703;48.978;8.982;2024-03-08T07:48:46;2.89;89.55
71047;SHT31;58703;48.978;8.982;2024-03-08T07:51:16;3.01;89.38
71047;SHT31;58703;48.978;8.982;2024-03-08T07:53:43;3.08;89.39
71047;SHT31;58703;48.978;8.982;2024-03-08T07:56:09;3.17;88.72
71047;SHT31;58703;48.978;8.982;2024-03-08T07:58:38;3.18;88.67
71047;SHT31;58703;48.978;8.982;2024-03-08T08:01:06;3.18;87.97
71047;SHT31;58703;48.978;8.982;2024-03-08T08:03:32;3.21;87.74
71047;SHT31;58703;48.978;8.982;2024-03-08T08:05:57;3.27;87.41
71047;SHT31;58703;48.978;8.982;2024-03-08T08:08:23;3.32;87.24
71047;SHT31;58703;48.978;8.982;2024-03-08T08:10:49;3.48;87.57
71047;SHT31;58703;48.978;8.982;2024-03-08T08:13:15;3.56;87.14
71047;SHT31;58703;48.978;8.982;2024-03-08T08:15:41;3.52;86.52
71047;SHT31;58703;48.978;8.982;2024-03-08T08:18:06;3.58;86.47
71047;SHT31;58703;48.978;8.982;2024-03-08T08:20:33;3.58;86.65
71047;SHT31;58703;48.978;8.982;2024-03-08T08:22:58;3.66;87.02
71047;SHT31;58703;48.978;8.982;2024-03-08T08:25:24;3.72;86.32
71047;SHT31;58703;48.978;8.982;2024-03-08T08:27:50;3.72;86.65
71047;SHT31;58703;48.978;8.982;2024-03-08T08:30:15;3.75;86.25
71047;SHT31;58703;48.978;8.982;2024-03-08T08:32:41;3.65;86.26
71047;SHT31;58703;48.978;8.982;2024-03-08T08:35:09;3.68;86.15
71047;SHT31;58703;48.978;8.982;2024-03-08T08:37:35;3.87;86.32
71047;SHT31;58703;48.978;8.982;2024-03-08T08:40:03;3.81;85.60
71047;SHT31;58703;48.978;8.982;2024-03-08T08:42:34;4.00;86.07
71047;SHT31;58703;48.978;8.982;2024-03-08T08:45:00;3.96;85.53
71047;SHT31;58703;48.978;8.982;2024-03-08T08:47:26;4.06;85.60
71047;SHT31;58703;48.978;8.982;2024-03-08T08:49:52;4.03;84.77
71047;SHT31;58703;48.978;8.982;2024-03-08T08:52:19;4.02;85.10
71047;SHT31;58703;48.978;8.982;2024-03-08T08:54:45;4.10;85.21
71047;SHT31;58703;48.978;8.982;2024-03-08T08:57:10;4.23;85.15
71047;SHT31;58703;48.978;8.982;2024-03-08T08:59:36;4.40;85.00
71047;SHT31;58703;48.978;8.982;2024-03-08T09:02:02;4.51;84.35
71047;SHT31;58703;48.978;8.982;2024-03-08T09:04:31;4.65;84.52
71047;SHT31;58703;48.978;8.982;2024-03-08T09:06:57;4.57;84.07
71047;SHT31;58703;48.978;8.982;2024-03-08T09:09:23;4.57;84.02
71047;SHT31;58703;48.978;8.982;2024-03-08T09:11:48;4.37;84.27
71047;SHT31;58703;48.978;8.982;2024-03-08T09:14:15;4.23;84.31
71047;SHT31;58703;48.978;8.982;2024-03-08T09:16:41;4.36;84.99
71047;SHT31;58703;48.978;8.982;2024-03-08T09:19:06;4.48;84.61
71047;SHT31;58703;48.978;8.982;2024-03-08T09:21:33;4.48;84.24
71047;SHT31;58703;48.978;8.982;2024-03-08T09:24:00;4.38;84.11
71047;SHT31;58703;48.978;8.982;2024-03-08T09:26:26;4.41;83.96
71047;SHT31;58703;48.978;8.982;2024-03-08T09:28:52;4.51;83.92
71047;SHT31;58703;48.978;8.982;2024-03-08T09:31:20;4.65;83.97
71047;SHT31;58703;48.978;8.982;2024-03-08T09:33:46;4.78;83.59
71047;SHT31;58703;48.978;8.982;2024-03-08T09:36:12;4.69;83.23
71047;SHT31;58703;48.978;8.982;2024-03-08T09:38:39;4.51;83.46
71047;SHT31;58703;48.978;8.982;2024-03-08T09:41:05;4.54;83.56
71047;SHT31;58703;48.978;8.982;2024-03-08T09:43:31;4.67;83.34
71047;SHT31;58703;48.978;8.982;2024-03-08T09:45:57;4.78;83.56
71047;SHT31;58703;48.978;8.982;2024-03-08T09:48:23;4.69;83.33
71047;SHT31;58703;48.978;8.982;2024-03-08T09:50:49;4.69;83.45
71047;SHT31;58703;48.978;8.982;2024-03-08T09:53:15;4.72;83.56
71047;SHT31;58703;48.978;8.982;2024-03-08T09:55:42;4.78;82.73
71047;SHT31;58703;48.978;8.982;2024-03-08T09:58:11;4.74;82.37
71047;SHT31;58703;48.978;8.982;2024-03-08T10:01:07;4.82;83.13
71047;SHT31;58703;48.978;8.982;2024-03-08T10:03:33;4.92;82.59
71047;SHT31;58703;48.978;8.982;2024-03-08T10:05:59;4.93;81.87
71047;SHT31;58703;48.978;8.982;2024-03-08T10:08:29;4.96;81.39
71047;SHT31;58703;48.978;8.982;2024-03-08T10:10:55;4.91;81.85
71047;SHT31;58703;48.978;8.982;2024-03-08T10:13:24;4.84;82.49
71047;SHT31;58703;48.978;8.982;2024-03-08T10:15:52;4.77;82.66
71047;SHT31;58703;48.978;8.982;2024-03-08T10:18:18;4.93;82.37
71047;SHT31;58703;48.978;8.982;2024-03-08T10:20:43;4.89;82.10
71047;SHT31;58703;48.978;8.982;2024-03-08T10:23:09;5.04;82.41
71047;SHT31;58703;48.978;8.982;2024-03-08T10:25:35;4.99;81.81
71047;SHT31;58703;48.978;8.982;2024-03-08T10:28:05;5.02;81.29
71047;SHT31;58703;48.978;8.982;2024-03-08T10:30:30;5.13;81.27
71047;SHT31;58703;48.978;8.982;2024-03-08T10:32:56;5.28;80.71
71047;SHT31;58703;48.978;8.982;2024-03-08T10:35:22;5.43;80.77
71047;SHT31;58703;48.978;8.982;2024-03-08T10:37:49;5.19;80.80
71047;SHT31;58703;48.978;8.982;2024-03-08T10:40:19;5.25;80.63
71047;SHT31;58703;48.978;8.982;2024-03-08T10:42:53;5.39;79.97
71047;SHT31;58703;48.978;8.982;2024-03-08T10:48:26;5.63;79.38
71047;SHT31;58703;48.978;8.982;2024-03-08T10:50:53;5.57;79.35
71047;SHT31;58703;48.978;8.982;2024-03-08T10:53:19;5.54;80.16
71047;SHT31;58703;48.978;8.982;2024-03-08T10:55:46;5.83;79.71
71047;SHT31;58703;48.978;8.982;2024-03-08T10:58:12;6.08;78.64
71047;SHT31;58703;48.978;8.982;2024-03-08T11:00:38;5.81;79.04
71047;SHT31;58703;48.978;8.982;2024-03-08T11:03:04;5.81;79.78
71047;SHT31;58703;48.978;8.982;2024-03-08T11:10:52;6.04;78.57
71047;SHT31;58703;48.978;8.982;2024-03-08T11:13:34;6.29;78.14
71047;SHT31;58703;48.978;8.982;2024-03-08T11:16:01;6.34;77.94
71047;SHT31;58703;48.978;8.982;2024-03-08T11:18:35;6.61;77.36
71047;SHT31;58703;48.978;8.982;2024-03-08T11:21:02;6.28;78.57
71047;SHT31;58703;48.978;8.982;2024-03-08T11:23:32;6.42;77.87
71047;SHT31;58703;48.978;8.982;2024-03-08T11:25:59;6.59;77.53
71047;SHT31;58703;48.978;8.982;2024-03-08T11:28:25;6.64;77.83
71047;SHT31;58703;48.978;8.982;2024-03-08T11:33:28;6.86;76.67
71047;SHT31;58703;48.978;8.982;2024-03-08T11:36:13;6.68;76.84
71047;SHT31;58703;48.978;8.982;2024-03-08T11:38:44;7.00;76.33
71047;SHT31;58703;48.978;8.982;2024-03-08T11:41:10;7.21;75.92
71047;SHT31;58703;48.978;8.982;2024-03-08T11:43:42;7.58;75.51
71047;SHT31;58703;48.978;8.982;2024-03-08T11:46:08;7.35;74.83
71047;SHT31;58703;48.978;8.982;2024-03-08T11:48:34;7.27;75.38
71047;SHT31;58703;48.978;8.982;2024-03-08T11:51:01;7.57;74.84
71047;SHT31;58703;48.978;8.982;2024-03-08T11:53:27;7.47;74.52
71047;SHT31;58703;48.978;8.982;2024-03-08T11:55:52;7.82;73.51
71047;SHT31;58703;48.978;8.982;2024-03-08T11:58:18;7.89;73.40
71047;SHT31;58703;48.978;8.982;2024-03-08T12:00:44;7.95;73.01
71047;SHT31;58703;48.978;8.982;2024-03-08T12:03:11;7.89;73.62
71047;SHT31;58703;48.978;8.982;2024-03-08T12:05:37;8.59;72.05
71047;SHT31;58703;48.978;8.982;2024-03-08T12:08:04;8.53;72.15
71047;SHT31;58703;48.978;8.982;2024-03-08T12:10:32;8.75;71.28
71047;SHT31;58703;48.978;8.982;2024-03-08T12:12:58;9.35;70.33
71047;SHT31;58703;48.978;8.982;2024-03-08T12:15:29;9.10;70.66
71047;SHT31;58703;48.978;8.982;2024-03-08T12:17:55;9.03;71.40
71047;SHT31;58703;48.978;8.982;2024-03-08T12:20:26;8.70;71.29
71047;SHT31;58703;48.978;8.982;2024-03-08T12:22:54;8.77;71.48
71047;SHT31;58703;48.978;8.982;2024-03-08T12:25:22;8.98;71.83
71047;SHT31;58703;48.978;8.982;2024-03-08T12:27:48;9.16;70.30
71047;SHT31;58703;48.978;8.982;2024-03-08T12:30:20;8.71;71.72
71047;SHT31;58703;48.978;8.982;2024-03-08T12:32:57;8.91;71.80
71047;SHT31;58703;48.978;8.982;2024-03-08T12:35:25;9.66;70.45
71047;SHT31;58703;48.978;8.982;2024-03-08T12:37:52;8.28;72.58
71047;SHT31;58703;48.978;8.982;2024-03-08T12:40:19;9.31;72.03
71047;SHT31;58703;48.978;8.982;2024-03-08T12:42:50;9.46;70.55
71047;SHT31;58703;48.978;8.982;2024-03-08T12:45:16;9.67;70.20
71047;SHT31;58703;48.978;8.982;2024-03-08T12:47:42;9.76;69.53
71047;SHT31;58703;48.978;8.982;2024-03-08T12:50:09;9.79;69.11
71047;SHT31;58703;48.978;8.982;2024-03-08T12:52:35;9.94;69.95
71047;SHT31;58703;48.978;8.982;2024-03-08T12:55:00;10.06;68.44
71047;SHT31;58703;48.978;8.982;2024-03-08T12:57:28;10.65;68.00
71047;SHT31;58703;48.978;8.982;2024-03-08T12:59:54;10.60;67.46
71047;SHT31;58703;48.978;8.982;2024-03-08T13:02:20;10.42;67.62
71047;SHT31;58703;48.978;8.982;2024-03-08T13:04:46;10.52;67.49
71047;SHT31;58703;48.978;8.982;2024-03-08T13:07:21;10.95;66.99
71047;SHT31;58703;48.978;8.982;2024-03-08T13:09:47;10.47;67.13
71047;SHT31;58703;48.978;8.982;2024-03-08T13:12:12;10.57;67.01
71047;SHT31;58703;48.978;8.982;2024-03-08T13:14:40;10.28;67.65
71047;SHT31;58703;48.978;8.982;2024-03-08T13:17:06;10.72;67.16
71047;SHT31;58703;48.978;8.982;2024-03-08T13:19:36;10.64;67.78
71047;SHT31;58703;48.978;8.982;2024-03-08T13:22:04;10.72;67.38
71047;SHT31;58703;48.978;8.982;2024-03-08T13:24:30;10.62;67.17
71047;SHT31;58703;48.978;8.982;2024-03-08T13:26:56;10.45;67.09
71047;SHT31;58703;48.978;8.982;2024-03-08T13:29:22;11.62;64.87
71047;SHT31;58703;48.978;8.982;2024-03-08T13:31:48;10.82;66.23
71047;SHT31;58703;48.978;8.982;2024-03-08T13:34:20;10.98;66.63
71047;SHT31;58703;48.978;8.982;2024-03-08T13:36:53;11.18;66.08
71047;SHT31;58703;48.978;8.982;2024-03-08T13:39:25;10.72;67.23
71047;SHT31;58703;48.978;8.982;2024-03-08T13:41:51;12.13;64.67
71047;SHT31;58703;48.978;8.982;2024-03-08T13:44:16;12.08;63.37
71047;SHT31;58703;48.978;8.982;2024-03-08T13:46:42;11.99;63.95
71047;SHT31;58703;48.978;8.982;2024-03-08T13:49:08;11.84;64.71
71047;SHT31;58703;48.978;8.982;2024-03-08T13:51:35;11.71;64.38
71047;SHT31;58703;48.978;8.982;2024-03-08T13:54:01;11.67;64.81
71047;SHT31;58703;48.978;8.982;2024-03-08T13:56:29;11.90;64.37
71047;SHT31;58703;48.978;8.982;2024-03-08T13:58:56;11.94;64.58
71047;SHT31;58703;48.978;8.982;2024-03-08T14:01:23;11.83;64.34
71047;SHT31;58703;48.978;8.982;2024-03-08T14:03:49;12.05;63.79
71047;SHT31;58703;48.978;8.982;2024-03-08T14:06:14;12.07;63.71
71047;SHT31;58703;48.978;8.982;2024-03-08T14:08:40;12.68;63.09
71047;SHT31;58703;48.978;8.982;2024-03-08T14:11:06;11.85;64.07
71047;SHT31;58703;48.978;8.982;2024-03-08T14:13:44;13.03;62.05
71047;SHT31;58703;48.978;8.982;2024-03-08T14:16:14;13.03;60.28
71047;SHT31;58703;48.978;8.982;2024-03-08T14:18:40;12.97;60.84
71047;SHT31;58703;48.978;8.982;2024-03-08T14:21:07;13.06;60.47
71047;SHT31;58703;48.978;8.982;2024-03-08T14:23:36;12.62;61.08
71047;SHT31;58703;48.978;8.982;2024-03-08T14:26:03;12.68;60.94
71047;SHT31;58703;48.978;8.982;2024-03-08T14:28:29;12.85;60.45
71047;SHT31;58703;48.978;8.982;2024-03-08T14:30:55;13.17;60.55
71047;SHT31;58703;48.978;8.982;2024-03-08T14:33:20;12.24;61.55
71047;SHT31;58703;48.978;8.982;2024-03-08T14:35:46;12.86;61.09
71047;SHT31;58703;48.978;8.982;2024-03-08T14:38:12;14.25;57.85
71047;SHT31;58703;48.978;8.982;2024-03-08T14:40:38;13.57;58.75
71047;SHT31;58703;48.978;8.982;2024-03-08T14:43:06;13.34;59.48
71047;SHT31;58703;48.978;8.982;2024-03-08T14:45:31;13.98;58.13
71047;SHT31;58703;48.978;8.982;2024-03-08T14:47:57;14.53;56.37
71047;SHT31;58703;48.978;8.982;2024-03-08T14:50:24;14.16;57.73
71047;SHT31;58703;48.978;8.982;2024-03-08T14:52:50;14.30;56.86
71047;SHT31;58703;48.978;8.982;2024-03-08T14:55:20;14.05;57.27
71047;SHT31;58703;48.978;8.982;2024-03-08T14:57:50;13.70;58.21
71047;SHT31;58703;48.978;8.982;2024-03-08T15:00:18;14.30;57.19
71047;SHT31;58703;48.978;8.982;2024-03-08T15:02:55;13.94;57.54
71047;SHT31;58703;48.978;8.982;2024-03-08T15:05:22;14.63;56.49
71047;SHT31;58703;48.978;8.982;2024-03-08T15:07:52;12.55;59.98
71047;SHT31;58703;48.978;8.982;2024-03-08T15:10:18;14.39;57.17
71047;SHT31;58703;48.978;8.982;2024-03-08T15:12:46;14.04;56.74
71047;SHT31;58703;48.978;8.982;2024-03-08T15:15:12;14.25;56.95
71047;SHT31;58703;48.978;8.982;2024-03-08T15:17:43;14.28;57.90
71047;SHT31;58703;48.978;8.982;2024-03-08T15:20:09;12.80;59.88
71047;SHT31;58703;48.978;8.982;2024-03-08T15:22:51;14.72;56.81
71047;SHT31;58703;48.978;8.982;2024-03-08T15:25:21;14.57;56.06
71047;SHT31;58703;48.978;8.982;2024-03-08T15:27:54;14.16;55.99
71047;SHT31;58703;48.978;8.982;2024-03-08T15:30:21;13.23;58.16
71047;SHT31;58703;48.978;8.982;2024-03-08T15:32:52;14.70;56.32
71047;SHT31;58703;48.978;8.982;2024-03-08T15:35:25;14.34;55.55
71047;SHT31;58703;48.978;8.982;2024-03-08T15:37:52;13.64;57.89
71047;SHT31;58703;48.978;8.982;2024-03-08T15:40:20;13.62;57.83
71047;SHT31;58703;48.978;8.982;2024-03-08T15:45:20;14.13;56.76
71047;SHT31;58703;48.978;8.982;2024-03-08T15:47:45;14.16;57.33
71047;SHT31;58703;48.978;8.982;2024-03-08T15:50:11;14.67;55.36
71047;SHT31;58703;48.978;8.982;2024-03-08T15:52:38;13.60;57.97
71047;SHT31;58703;48.978;8.982;2024-03-08T15:55:07;13.72;57.65